sensor_id;sensor_type;location;lat;lon;timestamp;P1;durP1;ratioP1;P2;durP2;ratioP2
33138;SDS011;19501;50.948;5.316;2023-03-08T00:00:03;27.50;;;10.18;;
33138;SDS011;19501;50.948;5.316;2023-03-08T00:02:31;26.42;;;10.07;;
33138;SDS011;19501;50.948;5.316;2023-03-08T00:04:56;26.38;;;9.75;;
33138;SDS011;19501;50.948;5.316;2023-03-08T00:07:22;27.67;;;10.90;;
33138;SDS011;19501;50.948;5.316;2023-03-08T00:09:48;26.48;;;10.02;;
33138;SDS011;19501;50.948;5.316;2023-03-08T00:12:14;27.35;;;9.65;;
33138;SDS011;19501;50.948;5.316;2023-03-08T00:14:43;26.92;;;9.38;;
33138;SDS011;19501;50.948;5.316;2023-03-08T00:17:09;26.17;;;9.85;;
33138;SDS011;19501;50.948;5.316;2023-03-08T00:19:37;26.02;;;9.95;;
33138;SDS011;19501;50.948;5.316;2023-03-08T00:22:03;28.67;;;11.05;;
33138;SDS011;19501;50.948;5.316;2023-03-08T00:24:28;26.58;;;9.85;;
33138;SDS011;19501;50.948;5.316;2023-03-08T00:26:54;26.80;;;10.60;;
33138;SDS011;19501;50.948;5.316;2023-03-08T00:29:20;22.75;;;9.20;;
33138;SDS011;19501;50.948;5.316;2023-03-08T00:31:46;22.95;;;9.48;;
33138;SDS011;19501;50.948;5.316;2023-03-08T00:34:15;23.95;;;9.40;;
33138;SDS011;19501;50.948;5.316;2023-03-08T00:36:41;25.05;;;9.23;;
33138;SDS011;19501;50.948;5.316;2023-03-08T00:39:07;24.67;;;9.50;;
33138;SDS011;19501;50.948;5.316;2023-03-08T00:41:33;23.58;;;8.98;;
33138;SDS011;19501;50.948;5.316;2023-03-08T00:43:59;25.40;;;9.68;;
33138;SDS011;19501;50.948;5.316;2023-03-08T00:46:24;25.30;;;9.88;;
33138;SDS011;19501;50.948;5.316;2023-03-08T00:48:50;21.50;;;8.25;;
33138;SDS011;19501;50.948;5.316;2023-03-08T00:51:18;22.60;;;8.23;;
33138;SDS011;19501;50.948;5.316;2023-03-08T00:53:45;23.40;;;9.23;;
33138;SDS011;19501;50.948;5.316;2023-03-08T00:56:13;25.50;;;9.15;;
33138;SDS011;19501;50.948;5.316;2023-03-08T00:58:39;24.88;;;9.00;;
33138;SDS011;19501;50.948;5.316;2023-03-08T01:01:07;25.88;;;10.10;;
33138;SDS011;19501;50.948;5.316;2023-03-08T01:03:36;24.48;;;8.65;;
33138;SDS011;19501;50.948;5.316;2023-03-08T01:06:09;25.42;;;9.13;;
33138;SDS011;19501;50.948;5.316;2023-03-08T01:08:39;23.83;;;9.07;;
33138;SDS011;19501;50.948;5.316;2023-03-08T01:11:13;23.52;;;9.13;;
33138;SDS011;19501;50.948;5.316;2023-03-08T01:13:43;25.02;;;9.75;;
33138;SDS011;19501;50.948;5.316;2023-03-08T01:16:20;24.08;;;9.32;;
33138;SDS011;19501;50.948;5.316;2023-03-08T01:18:48;24.05;;;9.15;;
33138;SDS011;19501;50.948;5.316;2023-03-08T01:21:14;25.15;;;8.60;;
33138;SDS011;19501;50.948;5.316;2023-03-08T01:23:40;25.20;;;8.85;;
33138;SDS011;19501;50.948;5.316;2023-03-08T01:26:07;19.13;;;7.32;;
33138;SDS011;19501;50.948;5.316;2023-03-08T01:28:36;25.08;;;9.35;;
33138;SDS011;19501;50.948;5.316;2023-03-08T01:33:36;22.05;;;8.13;;
33138;SDS011;19501;50.948;5.316;2023-03-08T01:36:03;24.73;;;8.70;;
33138;SDS011;19501;50.948;5.316;2023-03-08T01:38:32;22.45;;;8.77;;
33138;SDS011;19501;50.948;5.316;2023-03-08T01:40:58;21.63;;;8.57;;
33138;SDS011;19501;50.948;5.316;2023-03-08T01:48:41;24.17;;;9.77;;
33138;SDS011;19501;50.948;5.316;2023-03-08T01:51:16;22.38;;;8.65;;
33138;SDS011;19501;50.948;5.316;2023-03-08T01:53:47;23.50;;;8.38;;
33138;SDS011;19501;50.948;5.316;2023-03-08T01:56:14;23.25;;;8.80;;
33138;SDS011;19501;50.948;5.316;2023-03-08T01:58:42;21.85;;;8.40;;
33138;SDS011;19501;50.948;5.316;2023-03-08T02:01:10;22.42;;;8.75;;
33138;SDS011;19501;50.948;5.316;2023-03-08T02:03:36;24.13;;;8.63;;
33138;SDS011;19501;50.948;5.316;2023-03-08T02:06:01;23.40;;;9.20;;
33138;SDS011;19501;50.948;5.316;2023-03-08T02:08:28;24.42;;;9.32;;
33138;SDS011;19501;50.948;5.316;2023-03-08T02:10:56;25.00;;;9.02;;
33138;SDS011;19501;50.948;5.316;2023-03-08T02:13:23;24.58;;;10.27;;
33138;SDS011;19501;50.948;5.316;2023-03-08T02:15:49;31.42;;;11.13;;
33138;SDS011;19501;50.948;5.316;2023-03-08T02:18:19;29.25;;;10.65;;
33138;SDS011;19501;50.948;5.316;2023-03-08T02:20:45;29.40;;;11.05;;
33138;SDS011;19501;50.948;5.316;2023-03-08T02:23:18;28.88;;;10.40;;
33138;SDS011;19501;50.948;5.316;2023-03-08T02:25:49;26.88;;;9.65;;
33138;SDS011;19501;50.948;5.316;2023-03-08T02:28:14;25.58;;;9.93;;
33138;SDS011;19501;50.948;5.316;2023-03-08T02:30:40;27.17;;;11.50;;
33138;SDS011;19501;50.948;5.316;2023-03-08T02:33:06;29.55;;;11.50;;
33138;SDS011;19501;50.948;5.316;2023-03-08T02:35:32;31.05;;;11.95;;
33138;SDS011;19501;50.948;5.316;2023-03-08T02:37:59;32.20;;;12.77;;
33138;SDS011;19501;50.948;5.316;2023-03-08T02:40:27;34.92;;;14.25;;
33138;SDS011;19501;50.948;5.316;2023-03-08T02:42:52;38.38;;;15.60;;
33138;SDS011;19501;50.948;5.316;2023-03-08T02:45:21;42.92;;;16.80;;
33138;SDS011;19501;50.948;5.316;2023-03-08T02:47:47;36.25;;;15.48;;
33138;SDS011;19501;50.948;5.316;2023-03-08T02:50:13;37.05;;;15.52;;
33138;SDS011;19501;50.948;5.316;2023-03-08T02:52:38;34.53;;;14.77;;
33138;SDS011;19501;50.948;5.316;2023-03-08T02:55:04;35.95;;;15.40;;
33138;SDS011;19501;50.948;5.316;2023-03-08T02:57:30;34.47;;;15.25;;
33138;SDS011;19501;50.948;5.316;2023-03-08T02:59:56;36.05;;;14.55;;
33138;SDS011;19501;50.948;5.316;2023-03-08T03:02:22;35.58;;;14.40;;
33138;SDS011;19501;50.948;5.316;2023-03-08T03:04:47;37.47;;;14.68;;
33138;SDS011;19501;50.948;5.316;2023-03-08T03:07:13;36.97;;;14.80;;
33138;SDS011;19501;50.948;5.316;2023-03-08T03:09:39;33.55;;;14.68;;
33138;SDS011;19501;50.948;5.316;2023-03-08T03:12:04;35.92;;;15.05;;
33138;SDS011;19501;50.948;5.316;2023-03-08T03:14:30;38.53;;;15.57;;
33138;SDS011;19501;50.948;5.316;2023-03-08T03:16:56;33.30;;;14.68;;
33138;SDS011;19501;50.948;5.316;2023-03-08T03:19:22;35.95;;;15.15;;
33138;SDS011;19501;50.948;5.316;2023-03-08T03:21:48;39.40;;;16.98;;
33138;SDS011;19501;50.948;5.316;2023-03-08T03:24:13;38.13;;;15.85;;
33138;SDS011;19501;50.948;5.316;2023-03-08T03:26:41;35.42;;;15.25;;
33138;SDS011;19501;50.948;5.316;2023-03-08T03:29:07;37.40;;;15.80;;
33138;SDS011;19501;50.948;5.316;2023-03-08T03:31:33;39.47;;;17.08;;
33138;SDS011;19501;50.948;5.316;2023-03-08T03:33:59;40.83;;;16.58;;
33138;SDS011;19501;50.948;5.316;2023-03-08T03:36:24;39.53;;;17.38;;
33138;SDS011;19501;50.948;5.316;2023-03-08T03:38:50;34.45;;;16.00;;
33138;SDS011;19501;50.948;5.316;2023-03-08T03:41:20;36.13;;;15.13;;
33138;SDS011;19501;50.948;5.316;2023-03-08T03:43:46;37.67;;;15.25;;
33138;SDS011;19501;50.948;5.316;2023-03-08T03:46:14;30.75;;;13.25;;
33138;SDS011;19501;50.948;5.316;2023-03-08T03:48:41;33.72;;;13.98;;
33138;SDS011;19501;50.948;5.316;2023-03-08T03:51:11;35.97;;;14.13;;
33138;SDS011;19501;50.948;5.316;2023-03-08T03:53:39;34.63;;;14.50;;
33138;SDS011;19501;50.948;5.316;2023-03-08T03:56:09;35.55;;;14.75;;
33138;SDS011;19501;50.948;5.316;2023-03-08T03:58:39;32.95;;;13.93;;
33138;SDS011;19501;50.948;5.316;2023-03-08T04:01:10;35.75;;;15.52;;
33138;SDS011;19501;50.948;5.316;2023-03-08T04:03:45;32.50;;;14.48;;
33138;SDS011;19501;50.948;5.316;2023-03-08T04:06:15;37.38;;;15.05;;
33138;SDS011;19501;50.948;5.316;2023-03-08T04:08:52;33.78;;;13.50;;
33138;SDS011;19501;50.948;5.316;2023-03-08T04:11:22;35.08;;;14.75;;
33138;SDS011;19501;50.948;5.316;2023-03-08T04:13:50;28.58;;;11.88;;
33138;SDS011;19501;50.948;5.316;2023-03-08T04:16:17;33.95;;;15.32;;
33138;SDS011;19501;50.948;5.316;2023-03-08T04:18:45;39.53;;;15.65;;
33138;SDS011;19501;50.948;5.316;2023-03-08T04:21:11;39.78;;;15.82;;
33138;SDS011;19501;50.948;5.316;2023-03-08T04:23:37;40.05;;;17.17;;
33138;SDS011;19501;50.948;5.316;2023-03-08T04:26:03;39.03;;;16.50;;
33138;SDS011;19501;50.948;5.316;2023-03-08T04:28:30;39.88;;;17.42;;
33138;SDS011;19501;50.948;5.316;2023-03-08T04:30:56;44.47;;;18.23;;
33138;SDS011;19501;50.948;5.316;2023-03-08T04:33:22;42.92;;;18.80;;
33138;SDS011;19501;50.948;5.316;2023-03-08T04:35:48;43.15;;;18.73;;
33138;SDS011;19501;50.948;5.316;2023-03-08T04:38:14;46.45;;;19.23;;
33138;SDS011;19501;50.948;5.316;2023-03-08T04:40:45;43.92;;;18.60;;
33138;SDS011;19501;50.948;5.316;2023-03-08T04:43:35;43.03;;;18.35;;
33138;SDS011;19501;50.948;5.316;2023-03-08T04:46:05;43.35;;;17.45;;
33138;SDS011;19501;50.948;5.316;2023-03-08T04:48:32;41.08;;;17.45;;
33138;SDS011;19501;50.948;5.316;2023-03-08T04:50:59;40.20;;;16.70;;
33138;SDS011;19501;50.948;5.316;2023-03-08T04:53:26;40.40;;;17.10;;
33138;SDS011;19501;50.948;5.316;2023-03-08T04:55:54;40.88;;;16.38;;
33138;SDS011;19501;50.948;5.316;2023-03-08T04:58:20;39.75;;;16.00;;
33138;SDS011;19501;50.948;5.316;2023-03-08T05:00:47;42.70;;;15.50;;
33138;SDS011;19501;50.948;5.316;2023-03-08T05:03:13;37.20;;;15.80;;
33138;SDS011;19501;50.948;5.316;2023-03-08T05:05:52;36.05;;;13.80;;
33138;SDS011;19501;50.948;5.316;2023-03-08T05:08:19;35.13;;;13.88;;
33138;SDS011;19501;50.948;5.316;2023-03-08T05:10:51;35.30;;;14.23;;
33138;SDS011;19501;50.948;5.316;2023-03-08T05:13:21;35.28;;;14.27;;
33138;SDS011;19501;50.948;5.316;2023-03-08T05:15:47;34.08;;;13.05;;
33138;SDS011;19501;50.948;5.316;2023-03-08T05:18:13;30.45;;;12.15;;
33138;SDS011;19501;50.948;5.316;2023-03-08T05:20:41;29.75;;;11.93;;
33138;SDS011;19501;50.948;5.316;2023-03-08T05:23:06;27.83;;;10.35;;
33138;SDS011;19501;50.948;5.316;2023-03-08T05:25:32;28.80;;;11.13;;
33138;SDS011;19501;50.948;5.316;2023-03-08T05:27:58;26.52;;;9.85;;
33138;SDS011;19501;50.948;5.316;2023-03-08T05:30:24;26.65;;;9.35;;
33138;SDS011;19501;50.948;5.316;2023-03-08T05:32:50;25.65;;;9.00;;
33138;SDS011;19501;50.948;5.316;2023-03-08T05:35:16;24.55;;;8.48;;
33138;SDS011;19501;50.948;5.316;2023-03-08T05:37:42;21.85;;;8.23;;
33138;SDS011;19501;50.948;5.316;2023-03-08T05:40:07;23.63;;;7.97;;
33138;SDS011;19501;50.948;5.316;2023-03-08T05:42:34;19.30;;;7.30;;
33138;SDS011;19501;50.948;5.316;2023-03-08T05:44:59;24.15;;;7.88;;
33138;SDS011;19501;50.948;5.316;2023-03-08T05:47:25;21.42;;;7.18;;
33138;SDS011;19501;50.948;5.316;2023-03-08T05:49:53;19.20;;;7.10;;
33138;SDS011;19501;50.948;5.316;2023-03-08T05:52:18;19.90;;;6.80;;
33138;SDS011;19501;50.948;5.316;2023-03-08T05:54:44;20.40;;;7.47;;
33138;SDS011;19501;50.948;5.316;2023-03-08T05:57:10;17.27;;;6.28;;
33138;SDS011;19501;50.948;5.316;2023-03-08T05:59:35;17.02;;;6.05;;
33138;SDS011;19501;50.948;5.316;2023-03-08T06:02:01;17.08;;;6.32;;
33138;SDS011;19501;50.948;5.316;2023-03-08T06:04:27;18.38;;;6.57;;
33138;SDS011;19501;50.948;5.316;2023-03-08T06:06:52;17.88;;;6.45;;
33138;SDS011;19501;50.948;5.316;2023-03-08T06:09:18;18.90;;;6.20;;
33138;SDS011;19501;50.948;5.316;2023-03-08T06:11:44;18.02;;;6.65;;
33138;SDS011;19501;50.948;5.316;2023-03-08T06:14:09;17.75;;;6.63;;
33138;SDS011;19501;50.948;5.316;2023-03-08T06:16:35;18.67;;;6.68;;
33138;SDS011;19501;50.948;5.316;2023-03-08T06:19:01;17.77;;;6.60;;
33138;SDS011;19501;50.948;5.316;2023-03-08T06:21:29;17.98;;;6.15;;
33138;SDS011;19501;50.948;5.316;2023-03-08T06:23:54;16.80;;;5.78;;
33138;SDS011;19501;50.948;5.316;2023-03-08T06:26:20;17.52;;;6.15;;
33138;SDS011;19501;50.948;5.316;2023-03-08T06:28:46;16.33;;;5.90;;
33138;SDS011;19501;50.948;5.316;2023-03-08T06:31:15;15.80;;;5.35;;
33138;SDS011;19501;50.948;5.316;2023-03-08T06:33:42;16.00;;;5.55;;
33138;SDS011;19501;50.948;5.316;2023-03-08T06:36:12;17.33;;;6.40;;
33138;SDS011;19501;50.948;5.316;2023-03-08T06:38:40;17.33;;;5.93;;
33138;SDS011;19501;50.948;5.316;2023-03-08T06:41:07;13.05;;;4.90;;
33138;SDS011;19501;50.948;5.316;2023-03-08T06:43:33;16.88;;;5.95;;
33138;SDS011;19501;50.948;5.316;2023-03-08T06:46:09;17.67;;;6.20;;
33138;SDS011;19501;50.948;5.316;2023-03-08T06:48:37;20.95;;;6.28;;
33138;SDS011;19501;50.948;5.316;2023-03-08T06:51:03;16.92;;;5.95;;
33138;SDS011;19501;50.948;5.316;2023-03-08T06:53:29;18.60;;;6.45;;
33138;SDS011;19501;50.948;5.316;2023-03-08T06:55:55;17.88;;;5.80;;
33138;SDS011;19501;50.948;5.316;2023-03-08T06:58:21;19.25;;;6.90;;
33138;SDS011;19501;50.948;5.316;2023-03-08T07:00:47;18.33;;;6.35;;
33138;SDS011;19501;50.948;5.316;2023-03-08T07:03:14;20.80;;;6.85;;
33138;SDS011;19501;50.948;5.316;2023-03-08T07:05:40;19.98;;;6.57;;
33138;SDS011;19501;50.948;5.316;2023-03-08T07:08:06;18.83;;;6.70;;
33138;SDS011;19501;50.948;5.316;2023-03-08T07:10:32;21.02;;;7.05;;
33138;SDS011;19501;50.948;5.316;2023-03-08T07:12:58;18.08;;;6.35;;
33138;SDS011;19501;50.948;5.316;2023-03-08T07:15:24;23.60;;;7.68;;
33138;SDS011;19501;50.948;5.316;2023-03-08T07:17:51;19.17;;;6.55;;
33138;SDS011;19501;50.948;5.316;2023-03-08T07:20:22;19.08;;;6.15;;
33138;SDS011;19501;50.948;5.316;2023-03-08T07:22:49;19.88;;;7.05;;
33138;SDS011;19501;50.948;5.316;2023-03-08T07:25:16;20.05;;;6.88;;
33138;SDS011;19501;50.948;5.316;2023-03-08T07:27:43;21.40;;;7.40;;
33138;SDS011;19501;50.948;5.316;2023-03-08T07:30:10;20.08;;;7.45;;
33138;SDS011;19501;50.948;5.316;2023-03-08T07:32:38;21.10;;;7.57;;
33138;SDS011;19501;50.948;5.316;2023-03-08T07:35:05;21.83;;;7.43;;
33138;SDS011;19501;50.948;5.316;2023-03-08T07:37:32;19.75;;;6.93;;
33138;SDS011;19501;50.948;5.316;2023-03-08T07:39:57;22.80;;;8.23;;
33138;SDS011;19501;50.948;5.316;2023-03-08T07:42:23;21.08;;;8.25;;
33138;SDS011;19501;50.948;5.316;2023-03-08T07:44:49;21.55;;;8.07;;
33138;SDS011;19501;50.948;5.316;2023-03-08T07:47:16;21.50;;;7.80;;
33138;SDS011;19501;50.948;5.316;2023-03-08T07:49:42;23.20;;;8.20;;
33138;SDS011;19501;50.948;5.316;2023-03-08T07:52:08;23.13;;;9.05;;
33138;SDS011;19501;50.948;5.316;2023-03-08T07:54:33;22.08;;;7.47;;
33138;SDS011;19501;50.948;5.316;2023-03-08T07:56:59;51.80;;;10.52;;
33138;SDS011;19501;50.948;5.316;2023-03-08T07:59:25;27.05;;;8.88;;
33138;SDS011;19501;50.948;5.316;2023-03-08T08:01:50;23.27;;;8.50;;
33138;SDS011;19501;50.948;5.316;2023-03-08T08:04:16;22.52;;;9.05;;
33138;SDS011;19501;50.948;5.316;2023-03-08T08:06:42;29.80;;;10.10;;
33138;SDS011;19501;50.948;5.316;2023-03-08T08:09:08;22.90;;;8.95;;
33138;SDS011;19501;50.948;5.316;2023-03-08T08:11:36;22.95;;;9.27;;
33138;SDS011;19501;50.948;5.316;2023-03-08T08:14:03;24.33;;;9.38;;
33138;SDS011;19501;50.948;5.316;2023-03-08T08:16:29;23.63;;;9.85;;
33138;SDS011;19501;50.948;5.316;2023-03-08T08:18:55;23.80;;;9.88;;
33138;SDS011;19501;50.948;5.316;2023-03-08T08:21:20;23.13;;;9.38;;
33138;SDS011;19501;50.948;5.316;2023-03-08T08:23:46;23.83;;;9.63;;
33138;SDS011;19501;50.948;5.316;2023-03-08T08:26:14;24.15;;;9.27;;
33138;SDS011;19501;50.948;5.316;2023-03-08T08:28:41;20.60;;;8.73;;
33138;SDS011;19501;50.948;5.316;2023-03-08T08:31:09;21.88;;;8.73;;
33138;SDS011;19501;50.948;5.316;2023-03-08T08:33:37;23.63;;;10.35;;
33138;SDS011;19501;50.948;5.316;2023-03-08T08:36:04;22.08;;;9.57;;
33138;SDS011;19501;50.948;5.316;2023-03-08T08:38:31;24.25;;;10.25;;
33138;SDS011;19501;50.948;5.316;2023-03-08T08:40:58;21.77;;;9.43;;
33138;SDS011;19501;50.948;5.316;2023-03-08T08:43:25;24.48;;;10.07;;
33138;SDS011;19501;50.948;5.316;2023-03-08T08:45:52;26.95;;;11.32;;
33138;SDS011;19501;50.948;5.316;2023-03-08T08:48:20;23.80;;;10.82;;
33138;SDS011;19501;50.948;5.316;2023-03-08T08:50:46;23.83;;;10.27;;
33138;SDS011;19501;50.948;5.316;2023-03-08T08:53:11;24.75;;;9.98;;
33138;SDS011;19501;50.948;5.316;2023-03-08T08:55:40;23.38;;;9.88;;
33138;SDS011;19501;50.948;5.316;2023-03-08T08:58:08;24.48;;;10.02;;
33138;SDS011;19501;50.948;5.316;2023-03-08T09:00:34;27.60;;;11.65;;
33138;SDS011;19501;50.948;5.316;2023-03-08T09:03:00;29.13;;;12.68;;
33138;SDS011;19501;50.948;5.316;2023-03-08T09:05:27;26.90;;;11.35;;
33138;SDS011;19501;50.948;5.316;2023-03-08T09:07:57;28.73;;;12.75;;
33138;SDS011;19501;50.948;5.316;2023-03-08T09:10:27;27.05;;;11.50;;
33138;SDS011;19501;50.948;5.316;2023-03-08T09:12:55;31.33;;;12.95;;
33138;SDS011;19501;50.948;5.316;2023-03-08T09:15:23;35.42;;;13.40;;
33138;SDS011;19501;50.948;5.316;2023-03-08T09:17:48;29.35;;;12.70;;
33138;SDS011;19501;50.948;5.316;2023-03-08T09:20:14;31.42;;;13.35;;
33138;SDS011;19501;50.948;5.316;2023-03-08T09:22:43;30.13;;;13.30;;
33138;SDS011;19501;50.948;5.316;2023-03-08T09:25:14;32.63;;;13.80;;
33138;SDS011;19501;50.948;5.316;2023-03-08T09:27:40;31.92;;;13.32;;
33138;SDS011;19501;50.948;5.316;2023-03-08T09:30:14;32.75;;;14.93;;
33138;SDS011;19501;50.948;5.316;2023-03-08T09:32:41;34.63;;;15.25;;
33138;SDS011;19501;50.948;5.316;2023-03-08T09:35:07;33.17;;;14.27;;
33138;SDS011;19501;50.948;5.316;2023-03-08T09:37:33;38.03;;;17.05;;
33138;SDS011;19501;50.948;5.316;2023-03-08T09:40:00;37.42;;;16.88;;
33138;SDS011;19501;50.948;5.316;2023-03-08T09:42:29;38.25;;;17.50;;
33138;SDS011;19501;50.948;5.316;2023-03-08T09:55:35;35.90;;;15.85;;
33138;SDS011;19501;50.948;5.316;2023-03-08T10:09:31;39.53;;;18.02;;
33138;SDS011;19501;50.948;5.316;2023-03-08T10:12:00;37.70;;;18.83;;
33138;SDS011;19501;50.948;5.316;2023-03-08T10:14:52;39.67;;;21.48;;
33138;SDS011;19501;50.948;5.316;2023-03-08T10:17:27;35.42;;;16.85;;
33138;SDS011;19501;50.948;5.316;2023-03-08T10:20:06;35.72;;;17.58;;
33138;SDS011;19501;50.948;5.316;2023-03-08T10:23:05;38.65;;;18.40;;
33138;SDS011;19501;50.948;5.316;2023-03-08T10:25:42;30.98;;;13.55;;
33138;SDS011;19501;50.948;5.316;2023-03-08T10:28:17;32.75;;;13.07;;
33138;SDS011;19501;50.948;5.316;2023-03-08T10:30:54;109.57;;;38.17;;
33138;SDS011;19501;50.948;5.316;2023-03-08T10:33:29;31.63;;;13.52;;
33138;SDS011;19501;50.948;5.316;2023-03-08T10:38:34;35.65;;;14.82;;
33138;SDS011;19501;50.948;5.316;2023-03-08T10:41:02;28.17;;;12.50;;
33138;SDS011;19501;50.948;5.316;2023-03-08T10:43:32;23.88;;;11.18;;
33138;SDS011;19501;50.948;5.316;2023-03-08T10:48:30;24.27;;;11.25;;
33138;SDS011;19501;50.948;5.316;2023-03-08T10:51:03;26.08;;;12.40;;
33138;SDS011;19501;50.948;5.316;2023-03-08T10:53:31;25.63;;;11.20;;
33138;SDS011;19501;50.948;5.316;2023-03-08T10:55:58;24.48;;;11.43;;
33138;SDS011;19501;50.948;5.316;2023-03-08T11:00:57;24.95;;;11.45;;
33138;SDS011;19501;50.948;5.316;2023-03-08T11:03:24;26.83;;;12.65;;
33138;SDS011;19501;50.948;5.316;2023-03-08T11:08:26;25.15;;;11.65;;
33138;SDS011;19501;50.948;5.316;2023-03-08T11:13:32;26.92;;;12.63;;
33138;SDS011;19501;50.948;5.316;2023-03-08T11:31:59;32.42;;;15.20;;
33138;SDS011;19501;50.948;5.316;2023-03-08T11:37:09;31.80;;;14.85;;
33138;SDS011;19501;50.948;5.316;2023-03-08T11:39:39;31.95;;;15.43;;
33138;SDS011;19501;50.948;5.316;2023-03-08T11:58:26;33.00;;;15.95;;
33138;SDS011;19501;50.948;5.316;2023-03-08T12:01:26;33.30;;;16.35;;
33138;SDS011;19501;50.948;5.316;2023-03-08T12:03:59;34.50;;;17.23;;
33138;SDS011;19501;50.948;5.316;2023-03-08T12:06:34;36.95;;;16.98;;
33138;SDS011;19501;50.948;5.316;2023-03-08T12:11:46;37.28;;;17.90;;
33138;SDS011;19501;50.948;5.316;2023-03-08T12:14:23;37.70;;;18.42;;
33138;SDS011;19501;50.948;5.316;2023-03-08T12:16:58;35.28;;;17.55;;
33138;SDS011;19501;50.948;5.316;2023-03-08T12:19:49;36.88;;;16.65;;
33138;SDS011;19501;50.948;5.316;2023-03-08T12:32:55;36.97;;;18.23;;
33138;SDS011;19501;50.948;5.316;2023-03-08T12:38:34;36.80;;;17.25;;
33138;SDS011;19501;50.948;5.316;2023-03-08T12:40:59;37.67;;;17.58;;
33138;SDS011;19501;50.948;5.316;2023-03-08T12:56:19;38.72;;;19.13;;
33138;SDS011;19501;50.948;5.316;2023-03-08T12:58:50;38.25;;;17.92;;
33138;SDS011;19501;50.948;5.316;2023-03-08T13:01:41;36.40;;;18.50;;
33138;SDS011;19501;50.948;5.316;2023-03-08T13:07:02;35.30;;;17.27;;
33138;SDS011;19501;50.948;5.316;2023-03-08T13:10:06;38.35;;;18.45;;
33138;SDS011;19501;50.948;5.316;2023-03-08T13:13:03;38.25;;;18.85;;
33138;SDS011;19501;50.948;5.316;2023-03-08T13:15:30;35.53;;;16.73;;
33138;SDS011;19501;50.948;5.316;2023-03-08T13:18:00;38.50;;;18.42;;
33138;SDS011;19501;50.948;5.316;2023-03-08T13:23:49;37.00;;;18.77;;
33138;SDS011;19501;50.948;5.316;2023-03-08T13:28:16;39.33;;;18.77;;
33138;SDS011;19501;50.948;5.316;2023-03-08T13:30:55;43.83;;;20.25;;
33138;SDS011;19501;50.948;5.316;2023-03-08T13:38:56;43.85;;;20.30;;
33138;SDS011;19501;50.948;5.316;2023-03-08T13:41:34;45.60;;;20.35;;
33138;SDS011;19501;50.948;5.316;2023-03-08T13:44:04;42.53;;;20.90;;
33138;SDS011;19501;50.948;5.316;2023-03-08T13:46:31;42.55;;;19.30;;
33138;SDS011;19501;50.948;5.316;2023-03-08T13:48:57;46.65;;;22.27;;
33138;SDS011;19501;50.948;5.316;2023-03-08T13:51:25;43.42;;;20.23;;
33138;SDS011;19501;50.948;5.316;2023-03-08T13:53:52;44.05;;;20.73;;
33138;SDS011;19501;50.948;5.316;2023-03-08T13:56:20;45.25;;;21.52;;
33138;SDS011;19501;50.948;5.316;2023-03-08T13:58:52;44.60;;;19.88;;
33138;SDS011;19501;50.948;5.316;2023-03-08T14:01:24;45.17;;;21.65;;
33138;SDS011;19501;50.948;5.316;2023-03-08T14:03:51;45.00;;;22.20;;
33138;SDS011;19501;50.948;5.316;2023-03-08T14:06:27;46.90;;;22.10;;
33138;SDS011;19501;50.948;5.316;2023-03-08T14:08:54;48.20;;;23.83;;
33138;SDS011;19501;50.948;5.316;2023-03-08T14:11:36;48.15;;;23.10;;
33138;SDS011;19501;50.948;5.316;2023-03-08T14:14:04;52.83;;;22.88;;
33138;SDS011;19501;50.948;5.316;2023-03-08T14:16:35;49.10;;;21.05;;
33138;SDS011;19501;50.948;5.316;2023-03-08T14:19:10;56.13;;;25.42;;
33138;SDS011;19501;50.948;5.316;2023-03-08T14:21:46;50.83;;;22.88;;
33138;SDS011;19501;50.948;5.316;2023-03-08T14:24:15;53.75;;;23.88;;
33138;SDS011;19501;50.948;5.316;2023-03-08T14:26:52;49.17;;;23.30;;
33138;SDS011;19501;50.948;5.316;2023-03-08T14:29:23;48.67;;;21.85;;
33138;SDS011;19501;50.948;5.316;2023-03-08T14:31:53;48.17;;;22.27;;
33138;SDS011;19501;50.948;5.316;2023-03-08T14:34:22;48.75;;;22.83;;
33138;SDS011;19501;50.948;5.316;2023-03-08T14:36:55;50.63;;;24.08;;
33138;SDS011;19501;50.948;5.316;2023-03-08T14:39:26;54.13;;;23.05;;
33138;SDS011;19501;50.948;5.316;2023-03-08T14:41:53;54.58;;;26.85;;
33138;SDS011;19501;50.948;5.316;2023-03-08T14:44:21;51.78;;;24.23;;
33138;SDS011;19501;50.948;5.316;2023-03-08T14:46:52;40.17;;;18.63;;
33138;SDS011;19501;50.948;5.316;2023-03-08T14:49:27;55.88;;;25.83;;
33138;SDS011;19501;50.948;5.316;2023-03-08T14:51:53;55.17;;;24.88;;
33138;SDS011;19501;50.948;5.316;2023-03-08T14:54:28;55.33;;;24.30;;
33138;SDS011;19501;50.948;5.316;2023-03-08T14:56:56;55.13;;;24.00;;
33138;SDS011;19501;50.948;5.316;2023-03-08T14:59:23;53.28;;;24.73;;
33138;SDS011;19501;50.948;5.316;2023-03-08T15:01:49;52.20;;;24.55;;
33138;SDS011;19501;50.948;5.316;2023-03-08T15:04:16;55.50;;;25.58;;
33138;SDS011;19501;50.948;5.316;2023-03-08T15:06:44;60.45;;;26.25;;
33138;SDS011;19501;50.948;5.316;2023-03-08T15:09:14;58.67;;;25.73;;
33138;SDS011;19501;50.948;5.316;2023-03-08T15:11:42;57.15;;;25.10;;
33138;SDS011;19501;50.948;5.316;2023-03-08T15:14:12;74.28;;;33.85;;
33138;SDS011;19501;50.948;5.316;2023-03-08T15:16:38;81.97;;;39.13;;
33138;SDS011;19501;50.948;5.316;2023-03-08T15:19:04;62.28;;;26.23;;
33138;SDS011;19501;50.948;5.316;2023-03-08T15:21:30;70.55;;;32.35;;
33138;SDS011;19501;50.948;5.316;2023-03-08T15:23:58;60.67;;;28.15;;
33138;SDS011;19501;50.948;5.316;2023-03-08T15:26:29;64.00;;;30.00;;
33138;SDS011;19501;50.948;5.316;2023-03-08T15:28:56;66.20;;;28.90;;
33138;SDS011;19501;50.948;5.316;2023-03-08T15:31:22;62.95;;;28.25;;
33138;SDS011;19501;50.948;5.316;2023-03-08T15:33:48;63.38;;;28.38;;
33138;SDS011;19501;50.948;5.316;2023-03-08T15:36:14;63.30;;;28.38;;
33138;SDS011;19501;50.948;5.316;2023-03-08T15:38:41;62.40;;;27.60;;
33138;SDS011;19501;50.948;5.316;2023-03-08T15:41:11;65.18;;;28.83;;
33138;SDS011;19501;50.948;5.316;2023-03-08T15:43:37;62.10;;;27.55;;
33138;SDS011;19501;50.948;5.316;2023-03-08T15:46:05;64.13;;;28.20;;
33138;SDS011;19501;50.948;5.316;2023-03-08T15:48:33;65.15;;;29.45;;
33138;SDS011;19501;50.948;5.316;2023-03-08T15:50:59;66.90;;;29.15;;
33138;SDS011;19501;50.948;5.316;2023-03-08T15:53:24;66.32;;;30.27;;
33138;SDS011;19501;50.948;5.316;2023-03-08T15:55:50;67.03;;;29.15;;
33138;SDS011;19501;50.948;5.316;2023-03-08T15:58:16;68.20;;;29.50;;
33138;SDS011;19501;50.948;5.316;2023-03-08T16:00:41;63.80;;;29.73;;
33138;SDS011;19501;50.948;5.316;2023-03-08T16:03:08;63.17;;;27.92;;
33138;SDS011;19501;50.948;5.316;2023-03-08T16:05:37;71.70;;;34.63;;
33138;SDS011;19501;50.948;5.316;2023-03-08T16:08:03;73.50;;;30.30;;
33138;SDS011;19501;50.948;5.316;2023-03-08T16:10:31;68.47;;;31.25;;
33138;SDS011;19501;50.948;5.316;2023-03-08T16:13:04;68.95;;;30.25;;
33138;SDS011;19501;50.948;5.316;2023-03-08T16:15:30;71.63;;;30.48;;
33138;SDS011;19501;50.948;5.316;2023-03-08T16:17:56;64.03;;;28.33;;
33138;SDS011;19501;50.948;5.316;2023-03-08T16:20:21;65.20;;;29.88;;
33138;SDS011;19501;50.948;5.316;2023-03-08T16:22:52;60.85;;;27.30;;
33138;SDS011;19501;50.948;5.316;2023-03-08T16:25:18;60.10;;;27.65;;
33138;SDS011;19501;50.948;5.316;2023-03-08T16:27:49;61.78;;;28.77;;
33138;SDS011;19501;50.948;5.316;2023-03-08T16:30:15;60.53;;;26.02;;
33138;SDS011;19501;50.948;5.316;2023-03-08T16:32:44;68.85;;;30.65;;